Time;durP1;ratioP1;P1;durP2;ratioP2;P2;SDS_P1;SDS_P2;PMS_P1;PMS_P2;Temp;Humidity;BMP_temperature;BMP_pressure;BME280_temperature;BME280_humidity;BME280_pressure;Samples;Min_cycle;Max_cycle;Signal;HPM_P1;HPM_P2
2023/09/06 00:01:54;;;;;;;19.70;11.80;;;;;;;13.66;72.54;99411.11;436417;1253;108764;-41
2023/09/06 00:22:07;;;;;;;21.10;13.00;;;;;;;13.46;72.86;99416.12;436524;1253;107796;-43
2023/09/06 00:32:14;;;;;;;20.80;12.30;;;;;;;13.31;73.29;99423.67;436024;1250;484750;-43
2023/09/06 00:52:28;;;;;;;15.90;10.20;;;;;;;13.23;73.57;99418.19;436428;1253;107434;-42
2023/09/06 01:02:38;;;;;;;17.90;11.30;;;;;;;13.26;73.83;99413.58;436463;1253;97870;-43
2023/09/06 01:12:47;;;;;;;21.50;12.20;;;;;;;13.29;74.20;99417.63;436241;1253;107316;-42
2023/09/06 01:22:51;;;;;;;20.70;13.30;;;;;;;13.23;74.28;99416.55;436503;1249;96653;-41
2023/09/06 01:43:04;;;;;;;18.60;13.60;;;;;;;12.98;74.44;99419.44;437285;1253;108188;-42
2023/09/06 01:53:13;;;;;;;17.90;12.30;;;;;;;12.89;74.60;99423.46;437400;1261;97911;-40
2023/09/06 02:03:20;;;;;;;16.50;13.20;;;;;;;12.92;74.85;99412.72;437422;1251;109127;-41
2023/09/06 02:13:26;;;;;;;16.40;12.20;;;;;;;12.85;74.99;99396.40;437239;1261;107854;-44
2023/09/06 02:23:34;;;;;;;18.50;12.70;;;;;;;12.75;75.17;99385.30;437407;1252;97961;-43
2023/09/06 02:33:43;;;;;;;16.80;11.60;;;;;;;12.67;75.32;99388.85;437204;1261;111592;-42
2023/09/06 02:43:50;;;;;;;21.00;11.70;;;;;;;12.64;75.57;99408.13;437169;1253;107919;-43
2023/09/06 02:53:57;;;;;;;15.10;11.20;;;;;;;12.47;75.50;99407.30;437381;1254;97890;-43
2023/09/06 03:04:06;;;;;;;18.20;12.60;;;;;;;12.36;75.81;99403.38;437246;1252;109590;-41
2023/09/06 03:14:17;;;;;;;17.40;11.30;;;;;;;12.28;76.01;99403.69;437353;1257;97903;-43
2023/09/06 03:24:24;;;;;;;13.90;10.40;;;;;;;12.24;76.06;99409.13;437338;1252;111443;-42
2023/09/06 03:34:31;;;;;;;18.20;11.30;;;;;;;12.26;76.38;99415.86;437210;1254;108315;-41
2023/09/06 03:44:39;;;;;;;21.90;12.60;;;;;;;12.29;76.48;99416.98;437205;1248;97908;-43
2023/09/06 03:54:46;;;;;;;19.90;12.70;;;;;;;12.18;76.51;99413.89;437251;1253;107383;-44
2023/09/06 04:04:54;;;;;;;16.00;11.80;;;;;;;12.08;76.53;99410.26;437235;1261;97896;-41
2023/09/06 04:25:06;;;;;;;14.30;10.00;;;;;;;12.13;76.82;99415.70;437033;1251;109304;-43
2023/09/06 04:35:14;;;;;;;18.50;12.10;;;;;;;12.18;76.90;99420.00;436969;1254;96632;-41
2023/09/06 04:45:20;;;;;;;18.60;11.80;;;;;;;12.21;77.29;99429.42;436946;1254;109502;-42
2023/09/06 04:55:25;;;;;;;16.20;10.70;;;;;;;12.37;77.23;99439.42;437616;1261;107820;-41
2023/09/06 05:05:31;;;;;;;22.60;11.70;;;;;;;12.57;77.41;99450.23;436899;1248;97995;-42
2023/09/06 05:15:37;;;;;;;21.30;9.70;;;;;;;12.96;77.53;99446.95;437006;1261;109513;-43
2023/09/06 05:25:43;;;;;;;20.40;9.90;;;;;;;14.73;78.17;99447.33;437195;1251;97872;-42
2023/09/06 05:35:51;;;;;;;16.20;8.60;;;;;;;16.39;77.62;99448.71;437362;1248;109542;-42
2023/09/06 05:45:58;;;;;;;14.30;8.40;;;;;;;17.70;76.50;99447.59;437367;1248;107882;-42
2023/09/06 05:56:04;;;;;;;13.80;8.10;;;;;;;18.71;74.75;99448.20;437241;1248;96641;-43
2023/09/06 06:16:16;;;;;;;15.10;7.10;;;;;;;20.15;70.65;99442.42;437350;1248;97874;-42
2023/09/06 06:36:31;;;;;;;16.10;6.70;;;;;;;21.26;66.47;99455.88;437314;1252;108594;-42
2023/09/06 06:56:44;;;;;;;10.40;5.50;;;;;;;22.37;63.21;99473.58;437252;1251;97857;-42
2023/09/06 07:06:53;;;;;;;7.30;5.30;;;;;;;22.67;62.16;99455.52;437175;1248;107466;-43
2023/09/06 07:16:58;;;;;;;;;;;;;;;23.41;61.30;99449.83;437219;1247;97860;-42
2023/09/06 07:27:06;;;;;;;11.40;5.80;;;;;;;23.47;60.04;99453.14;437188;1251;109758;-41
2023/09/06 07:37:13;;;;;;;15.10;5.30;;;;;;;24.11;59.89;99456.33;437146;1248;107382;-42
2023/09/06 07:47:21;;;;;;;12.50;5.80;;;;;;;23.61;58.53;99457.56;437211;1247;97907;-41
2023/09/06 07:57:26;;;;;;;;;;;;;;;23.59;58.07;99450.79;437217;1253;109964;-41
2023/09/06 08:07:35;;;;;;;12.50;4.80;;;;;;;23.87;56.78;99455.57;436972;1248;108517;-40
2023/09/06 08:17:41;;;;;;;9.00;4.90;;;;;;;23.95;55.91;99458.51;437075;1248;97868;-41
2023/09/06 08:48:03;;;;;;;6.40;5.10;;;;;;;24.27;53.51;99457.48;436501;1248;110099;-41
2023/09/06 09:08:16;;;;;;;4.50;3.50;;;;;;;24.33;51.30;99457.17;436946;1247;96679;-41
2023/09/06 09:38:41;;;;;;;3.60;3.10;;;;;;;24.97;49.50;99465.08;436798;1251;97890;-41
2023/09/06 09:48:49;;;;;;;4.10;3.70;;;;;;;25.03;48.63;99472.68;436842;1251;110738;-41
2023/09/06 09:58:56;;;;;;;6.50;3.90;;;;;;;25.13;48.15;99476.86;436696;1247;108640;-44
2023/09/06 10:09:08;;;;;;;6.10;3.70;;;;;;;25.11;47.20;99475.77;436613;1251;97453;-41
2023/09/06 10:19:14;;;;;;;4.80;3.30;;;;;;;25.31;46.80;99472.53;437131;1251;107408;-42
2023/09/06 10:29:23;;;;;;;8.30;3.50;;;;;;;25.51;46.08;99472.84;437065;1248;97970;-40
2023/09/06 10:39:30;;;;;;;6.00;3.50;;;;;;;25.79;46.46;99467.55;437093;1247;110389;-42
2023/09/06 10:59:45;;;;;;;4.30;3.50;;;;;;;26.09;45.52;99474.27;437015;1251;96580;-41
2023/09/06 11:09:53;;;;;;;5.30;3.50;;;;;;;26.18;44.81;99470.62;437194;1251;111062;-42
2023/09/06 11:40:24;;;;;;;;;;;;;;;25.86;43.19;99454.23;437140;1251;109545;-40
2023/09/06 11:50:32;;;;;;;7.90;4.40;;;;;;;25.78;43.24;99444.95;436854;1251;107707;-42
2023/09/06 12:00:42;;;;;;;9.10;4.20;;;;;;;25.80;42.62;99446.05;437126;1247;97746;-40
2023/09/06 12:10:54;;;;;;;5.80;4.20;;;;;;;25.61;42.34;99436.03;437146;1251;107471;-42
2023/09/06 12:41:23;;;;;;;6.10;4.80;;;;;;;25.61;42.55;99428.13;436736;1247;108425;-42
2023/09/06 12:51:28;;;;;;;4.70;4.20;;;;;;;25.51;42.42;99420.63;436743;1251;97868;-42
2023/09/06 13:01:34;;;;;;;7.00;4.70;;;;;;;25.45;42.31;99413.27;436713;1247;107570;-42
2023/09/06 13:52:08;;;;;;;;;;;;;;;25.16;42.49;99382.11;437241;1251;109976;-42
2023/09/06 14:02:13;;;;;;;;;;;;;;;25.13;42.67;99372.42;437296;1251;107556;-42
2023/09/06 14:22:28;;;;;;;8.00;4.40;;;;;;;25.20;42.65;99366.53;437018;1247;110433;-41
2023/09/06 14:42:42;;;;;;;8.40;4.30;;;;;;;25.01;42.28;99365.96;437064;1251;97954;-42
2023/09/06 14:52:52;;;;;;;5.20;4.10;;;;;;;24.95;41.82;99352.79;437265;1251;110271;-41
2023/09/06 15:02:58;;;;;;;6.60;3.90;;;;;;;24.87;42.15;99348.27;437160;1261;107503;-43
2023/09/06 15:23:11;;;;;;;4.20;3.80;;;;;;;24.67;42.05;99345.75;437235;1251;111579;-42
2023/09/06 15:33:18;;;;;;;4.80;4.10;;;;;;;24.63;41.73;99351.90;437123;1247;108293;-42
2023/09/06 15:43:24;;;;;;;;;;;;;;;24.54;42.27;99356.41;437122;1251;97836;-42
2023/09/06 15:53:31;;;;;;;6.50;4.70;;;;;;;24.39;42.93;99362.95;437201;1248;110026;-42
2023/09/06 16:03:37;;;;;;;;;;;;;;;24.23;43.59;99363.91;437200;1251;108710;-42
2023/09/06 16:13:44;;;;;;;4.90;3.80;;;;;;;24.04;44.08;99367.27;437213;1247;97502;-41
2023/09/06 16:23:52;;;;;;;6.10;4.70;;;;;;;23.82;44.72;99370.70;437110;1247;110603;-41
2023/09/06 16:33:57;;;;;;;;;;;;;;;23.57;45.25;99374.98;437126;1251;108140;-42
2023/09/06 16:54:11;;;;;;;6.30;4.80;;;;;;;23.01;46.09;99388.77;437301;1251;110323;-42
2023/09/06 17:04:22;;;;;;;6.60;5.50;;;;;;;22.64;46.85;99392.39;437100;1247;108219;-42
2023/09/06 17:14:30;;;;;;;8.40;5.80;;;;;;;22.01;47.70;99393.34;437271;1247;118195;-41
2023/09/06 17:24:37;;;;;;;9.80;5.30;;;;;;;21.23;49.06;99396.02;437300;1247;109892;-43
2023/09/06 17:34:42;;;;;;;12.10;6.40;;;;;;;20.53;50.62;99402.88;437139;1247;108110;-42
2023/09/06 17:44:46;;;;;;;18.30;7.60;;;;;;;19.97;52.21;99406.97;437179;1253;97850;-43
2023/09/06 17:54:51;;;;;;;14.80;6.10;;;;;;;19.50;53.39;99412.33;437183;1253;97760;-42
2023/09/06 18:04:57;;;;;;;17.00;7.40;;;;;;;19.12;54.58;99422.60;437126;1253;107881;-41
2023/09/06 18:15:08;;;;;;;17.20;7.20;;;;;;;18.79;55.53;99424.98;437186;1248;96636;-42
2023/09/06 18:25:16;;;;;;;10.60;7.70;;;;;;;18.45;56.36;99429.55;437210;1252;109940;-42
2023/09/06 18:35:21;;;;;;;17.70;7.80;;;;;;;18.15;57.18;99432.04;437140;1251;108176;-42
2023/09/06 18:45:30;;;;;;;13.90;7.50;;;;;;;17.79;57.77;99439.12;437257;1248;96646;-43
2023/09/06 18:55:38;;;;;;;18.20;8.30;;;;;;;17.52;58.48;99438.64;437231;1252;110830;-42
2023/09/06 19:05:46;;;;;;;14.70;9.20;;;;;;;17.43;59.40;99441.39;437416;1253;108022;-41
2023/09/06 19:15:53;;;;;;;14.70;9.00;;;;;;;17.30;60.11;99444.48;437231;1253;96619;-42
2023/09/06 19:26:04;;;;;;;18.80;7.90;;;;;;;17.07;60.46;99443.62;437383;1253;109649;-43
2023/09/06 19:36:12;;;;;;;15.50;9.00;;;;;;;16.87;61.04;99446.62;437208;1253;109278;-43
2023/09/06 19:46:18;;;;;;;12.30;7.80;;;;;;;16.75;61.70;99447.91;437265;1253;96650;-42
2023/09/06 20:06:30;;;;;;;21.60;9.50;;;;;;;16.41;62.54;99449.41;437196;1253;108479;-42
2023/09/06 20:36:48;;;;;;;21.50;12.10;;;;;;;16.29;63.83;99451.80;437284;1247;97856;-42
2023/09/06 20:46:56;;;;;;;22.90;11.40;;;;;;;16.20;63.92;99456.01;437331;1247;110645;-43
2023/09/06 20:57:03;;;;;;;18.20;12.50;;;;;;;16.14;64.26;99460.84;437149;1252;110027;-42
2023/09/06 21:17:15;;;;;;;23.40;15.30;;;;;;;15.77;65.37;99473.83;437311;1247;110319;-42
2023/09/06 21:37:28;;;;;;;26.50;13.30;;;;;;;15.43;66.30;99479.69;437171;1251;97878;-41
2023/09/06 21:47:35;;;;;;;20.70;11.80;;;;;;;15.26;66.84;99486.58;437184;1253;109179;-42
2023/09/06 21:57:42;;;;;;;22.30;14.30;;;;;;;15.13;67.16;99487.45;437420;1248;107691;-41
2023/09/06 22:08:09;;;;;;;23.10;14.40;;;;;;;14.79;67.52;99490.46;437393;1251;97891;-42
2023/09/06 22:18:16;;;;;;;22.70;13.30;;;;;;;14.57;68.14;99506.20;437250;1261;111321;-42
2023/09/06 22:28:24;;;;;;;25.40;13.20;;;;;;;14.47;68.36;99513.08;437446;1252;107358;-41
2023/09/06 22:38:30;;;;;;;;;;;;;;;14.36;68.58;99517.51;437417;1252;96544;-42
2023/09/06 22:59:01;;;;;;;21.00;13.50;;;;;;;14.11;69.58;99526.39;437303;1248;97847;-42
2023/09/06 23:09:10;;;;;;;24.00;13.00;;;;;;;14.10;69.90;99520.89;437377;1258;110139;-42
2023/09/06 23:19:20;;;;;;;25.10;14.00;;;;;;;14.15;70.11;99512.64;437344;1252;107896;-42
2023/09/06 23:39:33;;;;;;;22.30;14.50;;;;;;;14.34;70.76;99505.23;437294;1248;108568;-43
2023/09/06 23:49:42;;;;;;;27.40;15.10;;;;;;;14.16;70.70;99503.64;437378;1248;97896;-42
2023/09/06 23:59:46;;;;;;;;;;;;;;;13.99;71.07;99517.02;437327;1254;110802;-41
